createdAt,value
2018-12-25T00:01:29.386Z,3.20
2018-12-25T00:03:59.415Z,3.30
2018-12-25T00:06:37.456Z,3.50
2018-12-25T00:09:20.947Z,3.50
2018-12-25T00:11:54.039Z,3.40
2018-12-25T00:14:25.489Z,3.30
2018-12-25T00:17:02.627Z,3.30
2018-12-25T00:19:33.897Z,3.30
2018-12-25T00:22:05.066Z,3.30
2018-12-25T00:24:36.221Z,3.50
2018-12-25T00:27:05.977Z,3.40
2018-12-25T00:29:36.455Z,3.30
2018-12-25T00:32:05.871Z,3.40
2018-12-25T00:34:35.704Z,3.30
2018-12-25T00:37:05.377Z,3.50
2018-12-25T00:39:35.086Z,3.90
2018-12-25T00:42:04.815Z,3.60
2018-12-25T00:44:34.329Z,3.40
2018-12-25T00:47:03.793Z,3.40
2018-12-25T00:49:33.179Z,3.70
2018-12-25T00:52:04.735Z,3.60
2018-12-25T00:54:34.449Z,3.50
2018-12-25T00:57:20.336Z,3.40
2018-12-25T00:59:49.755Z,3.50
2018-12-25T01:02:20.010Z,3.50
2018-12-25T01:04:52.311Z,3.60
2018-12-25T01:07:34.205Z,3.60
2018-12-25T01:10:12.809Z,3.60
2018-12-25T01:13:40.014Z,3.80
2018-12-25T01:16:10.857Z,3.70
2018-12-25T01:18:54.220Z,3.50
2018-12-25T01:21:25.150Z,3.60
2018-12-25T01:24:02.447Z,3.60
2018-12-25T01:26:41.448Z,3.70
2018-12-25T01:29:11.356Z,3.60
2018-12-25T01:31:45.428Z,3.60
2018-12-25T01:34:14.921Z,3.70
2018-12-25T01:36:44.518Z,3.60
2018-12-25T01:39:14.188Z,3.50
2018-12-25T01:41:43.823Z,3.60
2018-12-25T01:44:15.458Z,3.50
2018-12-25T01:46:45.072Z,3.50
2018-12-25T01:49:15.623Z,3.70
2018-12-25T01:51:45.427Z,3.40
2018-12-25T01:54:18.571Z,3.40
2018-12-25T01:56:51.579Z,3.60
2018-12-25T02:00:16.113Z,3.60
2018-12-25T02:04:05.337Z,3.50
2018-12-25T02:06:35.167Z,3.50
2018-12-25T02:09:06.535Z,3.50
2018-12-25T02:11:36.239Z,3.40
2018-12-25T02:14:05.734Z,3.40
2018-12-25T02:16:35.405Z,3.40
2018-12-25T02:19:09.224Z,3.30
2018-12-25T02:21:39.718Z,3.20
2018-12-25T02:24:09.278Z,3.20
2018-12-25T02:26:40.157Z,3.30
2018-12-25T02:29:09.686Z,3.20
2018-12-25T02:31:39.133Z,3.20
2018-12-25T02:34:08.895Z,3.10
2018-12-25T02:36:43.326Z,3.30
2018-12-25T02:39:16.957Z,3.40
2018-12-25T02:41:51.597Z,3.40
2018-12-25T02:44:22.984Z,3.30
2018-12-25T02:46:54.954Z,3.30
2018-12-25T02:49:28.002Z,3.50
2018-12-25T02:52:01.436Z,3.40
2018-12-25T02:54:37.123Z,3.40
2018-12-25T02:57:13.657Z,3.40
2018-12-25T02:59:50.230Z,3.30
2018-12-25T03:02:23.121Z,3.20
2018-12-25T03:04:52.744Z,3.30
2018-12-25T03:07:23.722Z,3.40
2018-12-25T03:09:53.802Z,3.50
2018-12-25T03:12:23.395Z,3.40
2018-12-25T03:14:53.190Z,3.50
2018-12-25T03:17:25.947Z,3.40
2018-12-25T03:19:59.989Z,3.50
2018-12-25T03:22:34.178Z,3.60
2018-12-25T03:25:16.025Z,3.50
2018-12-25T03:27:48.127Z,3.50
2018-12-25T03:30:17.581Z,3.70
2018-12-25T03:32:49.940Z,3.80
2018-12-25T03:35:21.905Z,3.60
2018-12-25T03:37:51.596Z,3.70
2018-12-25T03:40:21.109Z,3.70
2018-12-25T03:42:54.881Z,3.60
2018-12-25T03:45:28.113Z,3.70
2018-12-25T03:47:57.942Z,3.70
2018-12-25T03:50:29.864Z,3.50
2018-12-25T03:52:59.668Z,3.60
2018-12-25T03:55:29.432Z,3.50
2018-12-25T03:57:58.820Z,3.60
2018-12-25T04:00:29.960Z,3.70
2018-12-25T04:03:03.210Z,3.60
2018-12-25T04:05:32.995Z,3.70
2018-12-25T04:08:02.614Z,3.60
2018-12-25T04:10:32.454Z,3.70
2018-12-25T04:13:05.193Z,4.00
2018-12-25T04:15:36.300Z,3.90
2018-12-25T04:18:05.696Z,4.00
2018-12-25T04:20:36.206Z,3.90
2018-12-25T04:23:05.863Z,4.00
2018-12-25T04:25:38.193Z,4.00
2018-12-25T04:28:07.655Z,3.90
2018-12-25T04:30:37.081Z,3.90
2018-12-25T04:33:06.500Z,3.80
2018-12-25T04:35:35.865Z,3.80
2018-12-25T04:38:08.485Z,3.80
2018-12-25T04:40:37.957Z,3.90
2018-12-25T04:43:10.013Z,4.00
2018-12-25T04:45:39.736Z,3.90
2018-12-25T04:48:09.087Z,3.90
2018-12-25T04:50:38.729Z,3.90
2018-12-25T04:53:08.338Z,4.00
2018-12-25T04:55:37.892Z,4.00
2018-12-25T04:58:07.329Z,4.10
2018-12-25T05:00:36.739Z,4.10
2018-12-25T05:03:06.221Z,4.10
2018-12-25T05:05:37.831Z,4.30
2018-12-25T05:08:07.497Z,4.20
2018-12-25T05:10:37.003Z,4.10
2018-12-25T05:13:08.648Z,4.10
2018-12-25T05:15:37.978Z,4.10
2018-12-25T05:18:07.425Z,4.10
2018-12-25T05:20:38.000Z,4.30
2018-12-25T05:23:07.664Z,4.30
2018-12-25T05:25:37.021Z,4.10
2018-12-25T05:28:06.918Z,4.20
2018-12-25T05:30:36.720Z,4.00
2018-12-25T05:33:09.045Z,4.00
2018-12-25T05:35:39.094Z,4.20
2018-12-25T05:38:08.576Z,4.20
2018-12-25T05:40:38.229Z,4.10
2018-12-25T05:43:08.615Z,4.10
2018-12-25T05:45:39.056Z,4.30
2018-12-25T05:48:08.763Z,4.20
2018-12-25T05:50:46.546Z,4.30
2018-12-25T05:53:13.728Z,4.40
2018-12-25T05:55:44.074Z,4.30
2018-12-25T05:58:20.027Z,4.40
2018-12-25T06:00:53.021Z,4.30
2018-12-25T06:03:27.112Z,4.20
2018-12-25T06:06:04.111Z,4.20
2018-12-25T06:08:58.613Z,4.00
2018-12-25T06:11:29.595Z,4.00
2018-12-25T06:14:01.998Z,4.20
2018-12-25T06:16:31.369Z,4.10
2018-12-25T06:19:01.005Z,4.10
2018-12-25T06:21:30.571Z,3.90
2018-12-25T06:24:01.865Z,3.90
2018-12-25T06:26:31.284Z,3.90
2018-12-25T06:29:00.926Z,3.90
2018-12-25T06:31:31.897Z,3.90
2018-12-25T06:34:04.255Z,3.80
2018-12-25T06:36:33.931Z,3.90
2018-12-25T06:39:04.539Z,3.90
2018-12-25T06:41:34.102Z,3.90
2018-12-25T06:44:03.895Z,3.90
2018-12-25T06:46:34.425Z,3.90
2018-12-25T06:49:04.234Z,3.90
2018-12-25T06:51:37.717Z,4.00
2018-12-25T06:54:08.690Z,3.90
2018-12-25T06:56:40.381Z,3.90
2018-12-25T06:59:11.386Z,3.80
2018-12-25T07:01:43.748Z,4.10
2018-12-25T07:04:18.524Z,4.10
2018-12-25T07:06:56.657Z,4.00
2018-12-25T07:09:26.265Z,4.20
2018-12-25T07:11:57.726Z,4.10
2018-12-25T07:14:29.684Z,3.90
2018-12-25T07:16:59.589Z,4.10
2018-12-25T07:19:35.980Z,4.20
2018-12-25T07:22:08.435Z,4.30
2018-12-25T07:24:38.217Z,4.30
2018-12-25T07:27:22.814Z,4.40
2018-12-25T07:29:52.168Z,4.20
2018-12-25T07:32:21.631Z,4.50
2018-12-25T07:34:50.895Z,4.40
2018-12-25T07:37:21.342Z,4.10
2018-12-25T07:39:50.643Z,4.10
2018-12-25T07:42:19.822Z,4.30
2018-12-25T07:44:49.308Z,4.10
2018-12-25T07:47:18.623Z,4.10
2018-12-25T07:49:47.906Z,4.10
2018-12-25T07:52:17.140Z,4.00
2018-12-25T07:54:46.410Z,4.10
2018-12-25T07:57:15.620Z,4.30
2018-12-25T07:59:46.652Z,4.20
2018-12-25T08:02:16.117Z,4.30
2018-12-25T08:04:45.658Z,4.30
2018-12-25T08:07:24.828Z,4.20
2018-12-25T08:09:53.998Z,4.20
2018-12-25T08:12:23.253Z,4.30
2018-12-25T08:14:52.477Z,4.50
2018-12-25T08:17:21.747Z,4.30
2018-12-25T08:19:51.075Z,4.30
2018-12-25T08:22:20.395Z,4.40
2018-12-25T08:24:49.762Z,4.50
2018-12-25T08:27:18.965Z,4.50
2018-12-25T08:29:48.727Z,4.40
2018-12-25T08:32:18.211Z,4.30
2018-12-25T08:34:47.505Z,4.30
2018-12-25T08:37:18.036Z,4.40
2018-12-25T08:39:48.058Z,4.20
2018-12-25T08:42:17.353Z,4.20
2018-12-25T08:44:46.586Z,4.30
2018-12-25T08:47:15.846Z,4.60
2018-12-25T08:49:45.060Z,4.30
2018-12-25T08:52:14.260Z,4.40
2018-12-25T08:54:43.440Z,4.20
2018-12-25T08:58:53.085Z,4.20
2018-12-25T09:07:59.025Z,4.30
2018-12-25T09:16:53.882Z,4.30
2018-12-25T09:19:23.075Z,4.50
2018-12-25T09:21:52.262Z,4.40
2018-12-25T09:24:21.489Z,4.40
2018-12-25T09:30:02.843Z,4.50
2018-12-25T09:36:12.980Z,4.60
2018-12-25T09:38:51.642Z,4.50
2018-12-25T09:49:07.176Z,4.50
2018-12-25T09:52:47.028Z,4.50
2018-12-25T09:55:53.904Z,4.60
2018-12-25T09:58:42.024Z,4.60
2018-12-25T10:01:11.834Z,4.70
2018-12-25T10:04:34.004Z,4.70
2018-12-25T10:07:28.572Z,4.70
2018-12-25T10:10:00.988Z,4.80
2018-12-25T10:12:30.782Z,4.70
2018-12-25T10:15:00.075Z,4.60
2018-12-25T10:17:29.377Z,4.80
2018-12-25T10:19:58.707Z,4.80
2018-12-25T10:22:27.817Z,4.80
2018-12-25T10:24:56.975Z,4.80
2018-12-25T10:27:26.959Z,4.80
2018-12-25T10:30:37.768Z,4.90
2018-12-25T10:33:11.070Z,5.00
2018-12-25T10:35:48.374Z,5.00
2018-12-25T10:38:21.421Z,4.80
2018-12-25T10:41:04.727Z,4.80
2018-12-25T10:43:40.170Z,4.80
2018-12-25T10:46:20.802Z,4.80
2018-12-25T10:49:07.554Z,5.10
2018-12-25T10:51:39.531Z,4.90
2018-12-25T10:54:09.088Z,4.70
2018-12-25T10:56:38.458Z,4.70
2018-12-25T10:59:11.617Z,4.70
2018-12-25T11:01:40.755Z,4.80
2018-12-25T11:07:20.840Z,5.00
2018-12-25T11:09:51.192Z,5.00
2018-12-25T11:12:20.485Z,5.10
2018-12-25T11:14:49.998Z,4.90
2018-12-25T11:17:19.705Z,4.90
2018-12-25T11:19:48.934Z,4.80
2018-12-25T11:22:20.221Z,5.00
2018-12-25T11:24:48.964Z,4.90
2018-12-25T11:27:35.945Z,4.90
2018-12-25T11:30:07.224Z,4.90
2018-12-25T11:32:43.023Z,5.00
2018-12-25T11:35:15.419Z,5.10
2018-12-25T11:37:47.789Z,5.20
2018-12-25T11:40:16.948Z,5.20
2018-12-25T11:43:08.253Z,5.00
2018-12-25T11:45:37.605Z,5.20
2018-12-25T11:48:39.617Z,5.10
2018-12-25T11:52:05.673Z,5.30
2018-12-25T11:57:37.046Z,5.10
2018-12-25T12:00:07.533Z,5.30
2018-12-25T12:02:42.093Z,5.30
2018-12-25T12:05:11.408Z,5.30
2018-12-25T12:08:05.144Z,5.30
2018-12-25T12:10:34.304Z,5.30
2018-12-25T12:13:41.775Z,5.30
2018-12-25T12:17:05.032Z,5.30
2018-12-25T12:20:08.279Z,5.40
2018-12-25T12:22:40.256Z,5.20
2018-12-25T12:25:09.515Z,5.20
2018-12-25T12:27:39.006Z,5.30
2018-12-25T12:30:10.692Z,5.40
2018-12-25T12:32:39.812Z,5.30
2018-12-25T12:35:09.109Z,5.30
2018-12-25T12:37:54.297Z,5.50
2018-12-25T12:57:45.387Z,5.40
2018-12-25T13:04:53.765Z,5.50
2018-12-25T13:14:49.907Z,5.30
2018-12-25T13:21:41.959Z,5.50
2018-12-25T13:24:11.152Z,5.30
2018-12-25T13:26:40.335Z,5.60
2018-12-25T13:29:10.377Z,5.50
2018-12-25T13:31:39.751Z,5.40
2018-12-25T13:34:09.181Z,5.50
2018-12-25T13:36:38.562Z,5.30
2018-12-25T13:39:08.299Z,5.30
2018-12-25T13:41:37.550Z,5.20
2018-12-25T13:44:09.000Z,5.30
2018-12-25T13:46:38.237Z,5.20
2018-12-25T13:49:19.231Z,5.30
2018-12-25T13:51:44.207Z,5.50
2018-12-25T13:54:14.258Z,5.60
2018-12-25T13:56:44.467Z,5.60
2018-12-25T13:59:16.138Z,5.50
2018-12-25T14:01:47.131Z,5.50
2018-12-25T14:07:14.136Z,5.70
2018-12-25T14:09:43.437Z,5.60
2018-12-25T14:12:18.459Z,5.60
2018-12-25T14:14:47.855Z,5.50
2018-12-25T14:17:32.684Z,5.40
2018-12-25T14:19:59.431Z,5.40
2018-12-25T14:22:45.757Z,5.30
2018-12-25T14:25:14.946Z,5.30
2018-12-25T14:27:44.344Z,5.50
2018-12-25T14:30:13.579Z,5.60
2018-12-25T14:32:42.834Z,5.70
2018-12-25T14:35:12.032Z,5.50
2018-12-25T14:37:41.208Z,5.60
2018-12-25T14:40:10.392Z,5.60
2018-12-25T14:42:39.642Z,5.50
2018-12-25T14:45:08.908Z,5.60
2018-12-25T14:47:38.090Z,5.40
2018-12-25T14:50:07.986Z,5.50
2018-12-25T14:52:37.545Z,5.30
2018-12-25T14:55:09.202Z,5.30
2018-12-25T14:57:39.431Z,5.50
2018-12-25T15:00:14.505Z,5.40
2018-12-25T15:02:47.248Z,5.40
2018-12-25T15:05:19.487Z,5.30
2018-12-25T15:07:51.916Z,5.20
2018-12-25T15:10:28.163Z,5.20
2018-12-25T15:13:17.890Z,5.30
2018-12-25T15:15:53.739Z,5.20
2018-12-25T15:18:23.321Z,5.30
2018-12-25T15:20:52.842Z,5.50
2018-12-25T15:23:28.320Z,5.50
2018-12-25T15:41:46.620Z,5.20
2018-12-25T15:44:18.366Z,5.10
2018-12-25T15:46:48.427Z,5.20
2018-12-25T15:51:50.386Z,5.30
2018-12-25T15:58:34.761Z,5.20
2018-12-25T16:01:05.176Z,5.40
2018-12-25T16:03:37.292Z,5.30
2018-12-25T16:06:07.667Z,5.20
2018-12-25T16:08:45.214Z,5.30
2018-12-25T16:11:26.055Z,5.30
2018-12-25T16:13:57.328Z,5.40
2018-12-25T16:16:28.230Z,5.60
2018-12-25T16:18:57.456Z,5.40
2018-12-25T16:21:26.973Z,5.60
2018-12-25T16:23:56.168Z,5.60
2018-12-25T16:26:25.353Z,5.40
2018-12-25T16:28:54.568Z,5.40
2018-12-25T16:31:26.042Z,5.30
2018-12-25T16:33:55.471Z,5.40
2018-12-25T16:36:25.061Z,5.30
2018-12-25T16:38:55.301Z,5.30
2018-12-25T16:41:24.887Z,5.30
2018-12-25T16:43:54.217Z,5.30
2018-12-25T16:46:26.063Z,5.20
2018-12-25T16:49:01.344Z,5.50
2018-12-25T16:51:35.752Z,5.40
2018-12-25T16:54:04.990Z,5.60
2018-12-25T16:56:34.196Z,5.50
2018-12-25T16:59:03.394Z,5.50
2018-12-25T17:01:32.662Z,5.60
2018-12-25T17:04:02.553Z,5.50
2018-12-25T17:06:31.954Z,5.50
2018-12-25T17:09:01.285Z,5.70
2018-12-25T17:11:30.843Z,5.60
2018-12-25T17:14:00.324Z,5.50
2018-12-25T17:16:30.746Z,5.70
2018-12-25T17:19:00.042Z,5.80
2018-12-25T17:21:31.458Z,5.60
2018-12-25T17:24:02.374Z,5.50
2018-12-25T17:26:38.573Z,5.60
2018-12-25T17:29:12.179Z,5.60
2018-12-25T17:31:41.451Z,5.50
2018-12-25T17:34:13.851Z,5.40
2018-12-25T17:37:11.054Z,5.50
2018-12-25T17:40:36.979Z,5.40
2018-12-25T17:43:29.863Z,5.40
2018-12-25T17:46:37.211Z,5.50
2018-12-25T17:49:06.437Z,5.40
2018-12-25T17:51:39.022Z,5.50
2018-12-25T17:54:12.421Z,5.50
2018-12-25T17:56:49.946Z,5.60
2018-12-25T18:03:19.636Z,5.40
2018-12-25T18:05:51.368Z,5.40
2018-12-25T18:08:20.590Z,5.70
2018-12-25T18:10:55.765Z,5.60
2018-12-25T18:13:28.158Z,5.60
2018-12-25T18:15:59.869Z,5.60
2018-12-25T18:18:31.305Z,5.70
2018-12-25T18:21:00.899Z,5.60
2018-12-25T18:23:31.149Z,5.60
2018-12-25T18:26:00.601Z,5.60
2018-12-25T18:28:31.516Z,5.50
2018-12-25T18:32:13.300Z,5.50
2018-12-25T18:34:37.143Z,5.60
2018-12-25T18:37:33.784Z,5.50
2018-12-25T18:40:05.749Z,5.50
2018-12-25T18:42:35.957Z,5.60
2018-12-25T18:45:08.693Z,5.50
2018-12-25T18:47:49.923Z,5.50
2018-12-25T18:50:23.266Z,5.50
2018-12-25T18:52:52.537Z,5.70
2018-12-25T18:55:25.491Z,5.70
2018-12-25T18:57:55.598Z,5.60
2018-12-25T19:00:24.830Z,5.50
2018-12-25T19:02:55.307Z,5.60
2018-12-25T19:05:25.745Z,5.70
2018-12-25T19:07:54.872Z,5.60
2018-12-25T19:10:24.117Z,5.50
2018-12-25T19:12:54.465Z,5.70
2018-12-25T19:15:25.493Z,5.60
2018-12-25T19:17:56.836Z,5.50
2018-12-25T19:20:27.446Z,5.50
2018-12-25T19:22:56.670Z,5.60
2018-12-25T19:25:25.988Z,5.50
2018-12-25T19:27:55.188Z,5.60
2018-12-25T19:30:25.851Z,5.50
2018-12-25T19:32:55.030Z,5.50
2018-12-25T19:35:24.301Z,5.50
2018-12-25T19:37:53.714Z,5.40
2018-12-25T19:40:24.044Z,5.40
2018-12-25T19:42:53.262Z,5.40
2018-12-25T19:45:23.712Z,5.40
2018-12-25T19:47:54.217Z,5.50
2018-12-25T19:50:24.452Z,5.40
2018-12-25T19:52:53.843Z,5.60
2018-12-25T19:55:23.034Z,5.50
2018-12-25T19:57:52.501Z,5.50
2018-12-25T20:00:21.687Z,5.40
2018-12-25T20:03:03.451Z,5.50
2018-12-25T20:06:19.861Z,5.60
2018-12-25T20:09:36.720Z,5.60
2018-12-25T20:12:58.045Z,5.50
2018-12-25T20:16:32.647Z,5.40
2018-12-25T20:19:26.253Z,5.50
2018-12-25T20:22:38.555Z,5.30
2018-12-25T20:25:54.904Z,5.30
2018-12-25T20:28:55.427Z,5.30
2018-12-25T20:32:04.492Z,5.30
2018-12-25T20:35:00.975Z,5.30
2018-12-25T20:38:05.297Z,5.30
2018-12-25T20:41:40.137Z,5.20
2018-12-25T20:44:52.718Z,5.30
2018-12-25T20:48:00.537Z,5.30
2018-12-25T20:51:12.993Z,5.40
2018-12-25T20:54:12.373Z,5.30
2018-12-25T20:57:23.516Z,5.30
2018-12-25T21:00:29.822Z,5.30
2018-12-25T21:03:52.966Z,5.40
2018-12-25T21:07:29.025Z,5.30
2018-12-25T21:10:48.427Z,5.40
2018-12-25T21:14:00.001Z,5.30
2018-12-25T21:17:18.915Z,5.40
2018-12-25T21:20:44.837Z,5.40
2018-12-25T21:23:49.956Z,5.40
2018-12-25T21:26:56.418Z,5.50
2018-12-25T21:29:25.692Z,5.50
2018-12-25T21:31:54.883Z,5.50
2018-12-25T21:34:24.189Z,5.50
2018-12-25T21:36:55.568Z,5.30
2018-12-25T21:39:24.819Z,5.50
2018-12-25T21:41:54.346Z,5.40
2018-12-25T21:44:24.495Z,5.30
2018-12-25T21:46:54.307Z,5.50
2018-12-25T21:49:23.662Z,5.40
2018-12-25T21:51:53.806Z,5.50
2018-12-25T21:54:23.333Z,5.50
2018-12-25T21:56:52.911Z,5.60
2018-12-25T21:59:22.195Z,5.60
2018-12-25T22:01:52.068Z,5.50
2018-12-25T22:04:21.460Z,5.50
2018-12-25T22:06:51.072Z,5.40
2018-12-25T22:09:20.295Z,5.50
2018-12-25T22:11:50.771Z,5.50
2018-12-25T22:14:19.925Z,5.70
2018-12-25T22:16:49.099Z,5.70
2018-12-25T22:19:18.281Z,5.50
2018-12-25T22:21:48.772Z,5.40
2018-12-25T22:24:18.184Z,5.40
2018-12-25T22:26:47.388Z,5.50
2018-12-25T22:29:17.771Z,5.40
2018-12-25T22:31:46.903Z,5.50
2018-12-25T22:34:16.068Z,5.50
2018-12-25T22:36:45.942Z,5.40
2018-12-25T22:39:15.131Z,5.50
2018-12-25T22:41:44.223Z,5.60
2018-12-25T22:44:13.873Z,5.50
2018-12-25T22:46:43.784Z,5.40
2018-12-25T22:49:13.001Z,5.50
2018-12-25T22:51:42.253Z,5.40
2018-12-25T22:54:11.504Z,5.60
2018-12-25T22:56:40.691Z,5.50
2018-12-25T22:59:09.982Z,5.50
2018-12-25T23:01:39.151Z,5.60
2018-12-25T23:04:08.353Z,5.80
2018-12-25T23:06:37.636Z,5.60
2018-12-25T23:09:07.527Z,5.50
2018-12-25T23:11:36.745Z,5.70
2018-12-25T23:14:05.895Z,5.60
2018-12-25T23:16:35.147Z,5.60
2018-12-25T23:19:04.268Z,5.70
2018-12-25T23:21:33.792Z,5.60
2018-12-25T23:24:02.954Z,5.50
2018-12-25T23:26:32.156Z,5.50
2018-12-25T23:29:01.324Z,5.50
2018-12-25T23:31:30.568Z,5.60
2018-12-25T23:33:59.749Z,5.60
2018-12-25T23:36:28.988Z,5.50
2018-12-25T23:38:58.128Z,5.60
2018-12-25T23:41:27.267Z,5.60
2018-12-25T23:43:58.704Z,5.70
2018-12-25T23:46:27.892Z,5.70
2018-12-25T23:48:57.091Z,5.80
2018-12-25T23:51:26.214Z,5.80
2018-12-25T23:53:55.460Z,5.60
2018-12-25T23:56:24.589Z,5.70
2018-12-25T23:58:53.896Z,5.70
